sensor_id;sensor_type;location;lat;lon;timestamp;temperature;humidity
53053;DHT22;38934;52.690;6.184;2023-05-17T00:02:05;10.70;99.90
53053;DHT22;38934;52.690;6.184;2023-05-17T00:04:31;9.60;99.90
53053;DHT22;38934;52.690;6.184;2023-05-17T00:07:01;8.90;99.90
53053;DHT22;38934;52.690;6.184;2023-05-17T00:09:27;9.60;99.90
53053;DHT22;38934;52.690;6.184;2023-05-17T00:11:52;9.70;99.90
53053;DHT22;38934;52.690;6.184;2023-05-17T00:14:18;9.10;99.90
53053;DHT22;38934;52.690;6.184;2023-05-17T00:16:46;9.60;99.90
53053;DHT22;38934;52.690;6.184;2023-05-17T00:19:12;9.70;99.90
53053;DHT22;38934;52.690;6.184;2023-05-17T00:21:38;9.60;99.90
53053;DHT22;38934;52.690;6.184;2023-05-17T00:24:04;9.70;99.90
53053;DHT22;38934;52.690;6.184;2023-05-17T00:26:30;9.60;99.90
53053;DHT22;38934;52.690;6.184;2023-05-17T00:28:58;10.60;99.90
53053;DHT22;38934;52.690;6.184;2023-05-17T00:35:58;9.60;99.90
53053;DHT22;38934;52.690;6.184;2023-05-17T00:46:16;9.40;99.90
53053;DHT22;38934;52.690;6.184;2023-05-17T00:52:57;9.20;99.90
53053;DHT22;38934;52.690;6.184;2023-05-17T01:28:15;8.70;99.90
53053;DHT22;38934;52.690;6.184;2023-05-17T01:30:43;8.30;99.90
53053;DHT22;38934;52.690;6.184;2023-05-17T01:33:11;8.20;99.90
53053;DHT22;38934;52.690;6.184;2023-05-17T01:35:38;8.20;99.90
53053;DHT22;38934;52.690;6.184;2023-05-17T01:38:04;8.20;99.90
53053;DHT22;38934;52.690;6.184;2023-05-17T01:40:33;8.10;99.90
53053;DHT22;38934;52.690;6.184;2023-05-17T01:43:18;8.10;99.90
53053;DHT22;38934;52.690;6.184;2023-05-17T01:46:11;8.00;99.90
53053;DHT22;38934;52.690;6.184;2023-05-17T01:48:39;8.00;99.90
53053;DHT22;38934;52.690;6.184;2023-05-17T01:51:11;7.90;99.90
53053;DHT22;38934;52.690;6.184;2023-05-17T01:53:47;7.90;99.90
53053;DHT22;38934;52.690;6.184;2023-05-17T01:56:24;7.80;99.90
53053;DHT22;38934;52.690;6.184;2023-05-17T01:58:52;7.80;99.90
53053;DHT22;38934;52.690;6.184;2023-05-17T02:01:20;7.80;99.90
53053;DHT22;38934;52.690;6.184;2023-05-17T02:03:48;7.70;99.90
53053;DHT22;38934;52.690;6.184;2023-05-17T02:06:15;7.70;99.90
53053;DHT22;38934;52.690;6.184;2023-05-17T02:08:43;7.70;99.90
53053;DHT22;38934;52.690;6.184;2023-05-17T02:11:09;7.70;99.90
53053;DHT22;38934;52.690;6.184;2023-05-17T02:13:35;7.70;99.90
53053;DHT22;38934;52.690;6.184;2023-05-17T02:16:02;7.60;99.90
53053;DHT22;38934;52.690;6.184;2023-05-17T02:18:28;7.60;99.90
53053;DHT22;38934;52.690;6.184;2023-05-17T02:20:55;7.60;99.90
53053;DHT22;38934;52.690;6.184;2023-05-17T02:23:20;7.60;99.90
53053;DHT22;38934;52.690;6.184;2023-05-17T02:25:47;7.50;99.90
53053;DHT22;38934;52.690;6.184;2023-05-17T02:28:13;7.50;99.90
53053;DHT22;38934;52.690;6.184;2023-05-17T02:30:39;7.50;99.90
53053;DHT22;38934;52.690;6.184;2023-05-17T02:33:09;7.50;99.90
53053;DHT22;38934;52.690;6.184;2023-05-17T02:35:34;7.50;99.90
53053;DHT22;38934;52.690;6.184;2023-05-17T02:38:00;7.50;99.90
53053;DHT22;38934;52.690;6.184;2023-05-17T02:40:26;7.50;99.90
53053;DHT22;38934;52.690;6.184;2023-05-17T02:42:51;7.50;99.90
53053;DHT22;38934;52.690;6.184;2023-05-17T02:45:17;7.50;99.90
53053;DHT22;38934;52.690;6.184;2023-05-17T02:47:43;7.70;99.90
53053;DHT22;38934;52.690;6.184;2023-05-17T02:50:09;7.50;99.90
53053;DHT22;38934;52.690;6.184;2023-05-17T02:52:34;7.60;99.90
53053;DHT22;38934;52.690;6.184;2023-05-17T02:55:01;7.60;99.90
53053;DHT22;38934;52.690;6.184;2023-05-17T02:57:27;7.60;99.90
53053;DHT22;38934;52.690;6.184;2023-05-17T02:59:52;7.60;99.90
53053;DHT22;38934;52.690;6.184;2023-05-17T03:02:18;7.60;99.90
53053;DHT22;38934;52.690;6.184;2023-05-17T03:04:43;7.70;99.90
53053;DHT22;38934;52.690;6.184;2023-05-17T03:07:09;7.70;99.90
53053;DHT22;38934;52.690;6.184;2023-05-17T03:09:36;7.70;99.90
53053;DHT22;38934;52.690;6.184;2023-05-17T03:12:02;7.70;99.90
53053;DHT22;38934;52.690;6.184;2023-05-17T03:14:27;7.70;99.90
53053;DHT22;38934;52.690;6.184;2023-05-17T03:16:53;7.70;99.90
53053;DHT22;38934;52.690;6.184;2023-05-17T03:19:19;7.60;99.90
53053;DHT22;38934;52.690;6.184;2023-05-17T03:21:45;7.60;99.90
53053;DHT22;38934;52.690;6.184;2023-05-17T03:24:12;7.80;99.90
53053;DHT22;38934;52.690;6.184;2023-05-17T03:26:38;7.60;99.90
53053;DHT22;38934;52.690;6.184;2023-05-17T03:29:04;7.60;99.90
53053;DHT22;38934;52.690;6.184;2023-05-17T03:31:30;7.60;99.90
53053;DHT22;38934;52.690;6.184;2023-05-17T03:33:59;7.60;99.90
53053;DHT22;38934;52.690;6.184;2023-05-17T03:36:24;7.60;99.90
53053;DHT22;38934;52.690;6.184;2023-05-17T03:38:50;7.60;99.90
53053;DHT22;38934;52.690;6.184;2023-05-17T03:41:16;8.00;99.90
53053;DHT22;38934;52.690;6.184;2023-05-17T03:43:42;7.60;99.90
53053;DHT22;38934;52.690;6.184;2023-05-17T03:46:08;7.60;99.90
53053;DHT22;38934;52.690;6.184;2023-05-17T03:48:33;7.60;99.90
53053;DHT22;38934;52.690;6.184;2023-05-17T03:51:00;7.60;99.90
53053;DHT22;38934;52.690;6.184;2023-05-17T03:53:26;7.60;99.90
53053;DHT22;38934;52.690;6.184;2023-05-17T03:55:52;7.60;99.90
53053;DHT22;38934;52.690;6.184;2023-05-17T03:58:17;7.50;99.90
53053;DHT22;38934;52.690;6.184;2023-05-17T04:00:43;7.50;99.90
53053;DHT22;38934;52.690;6.184;2023-05-17T04:03:11;7.50;99.90
53053;DHT22;38934;52.690;6.184;2023-05-17T04:05:39;7.50;99.90
53053;DHT22;38934;52.690;6.184;2023-05-17T04:08:05;7.40;99.90
53053;DHT22;38934;52.690;6.184;2023-05-17T04:10:31;7.50;99.90
53053;DHT22;38934;52.690;6.184;2023-05-17T04:12:57;7.40;99.90
53053;DHT22;38934;52.690;6.184;2023-05-17T04:15:23;7.40;99.90
53053;DHT22;38934;52.690;6.184;2023-05-17T04:17:48;7.40;99.90
53053;DHT22;38934;52.690;6.184;2023-05-17T04:20:14;7.40;99.90
53053;DHT22;38934;52.690;6.184;2023-05-17T04:22:40;7.40;99.90
53053;DHT22;38934;52.690;6.184;2023-05-17T04:25:06;7.40;99.90
53053;DHT22;38934;52.690;6.184;2023-05-17T04:27:33;7.40;99.90
53053;DHT22;38934;52.690;6.184;2023-05-17T04:30:03;7.40;99.90
53053;DHT22;38934;52.690;6.184;2023-05-17T04:32:29;7.50;99.90
53053;DHT22;38934;52.690;6.184;2023-05-17T04:34:55;7.50;99.90
53053;DHT22;38934;52.690;6.184;2023-05-17T04:37:20;7.50;99.90
53053;DHT22;38934;52.690;6.184;2023-05-17T04:39:48;7.40;99.90
53053;DHT22;38934;52.690;6.184;2023-05-17T04:42:17;7.50;99.90
53053;DHT22;38934;52.690;6.184;2023-05-17T04:44:46;7.50;99.90
53053;DHT22;38934;52.690;6.184;2023-05-17T04:47:12;7.60;99.90
53053;DHT22;38934;52.690;6.184;2023-05-17T04:49:40;7.50;99.90
53053;DHT22;38934;52.690;6.184;2023-05-17T04:52:07;7.60;99.90
53053;DHT22;38934;52.690;6.184;2023-05-17T04:54:34;7.60;99.90
53053;DHT22;38934;52.690;6.184;2023-05-17T04:57:00;7.70;99.90
53053;DHT22;38934;52.690;6.184;2023-05-17T04:59:28;7.80;99.90
53053;DHT22;38934;52.690;6.184;2023-05-17T05:01:53;7.80;99.90
53053;DHT22;38934;52.690;6.184;2023-05-17T05:04:19;8.30;99.90
53053;DHT22;38934;52.690;6.184;2023-05-17T05:06:44;8.00;99.90
53053;DHT22;38934;52.690;6.184;2023-05-17T05:09:10;8.10;99.90
53053;DHT22;38934;52.690;6.184;2023-05-17T05:11:37;8.10;99.90
53053;DHT22;38934;52.690;6.184;2023-05-17T05:14:03;8.20;99.90
53053;DHT22;38934;52.690;6.184;2023-05-17T05:16:28;8.20;99.90
53053;DHT22;38934;52.690;6.184;2023-05-17T05:18:54;8.50;99.90
53053;DHT22;38934;52.690;6.184;2023-05-17T05:21:21;8.40;99.90
53053;DHT22;38934;52.690;6.184;2023-05-17T05:23:46;8.50;99.90
53053;DHT22;38934;52.690;6.184;2023-05-17T05:26:12;8.60;99.90
53053;DHT22;38934;52.690;6.184;2023-05-17T05:28:38;8.70;99.90
53053;DHT22;38934;52.690;6.184;2023-05-17T05:31:06;8.80;99.90
53053;DHT22;38934;52.690;6.184;2023-05-17T05:33:32;8.90;99.90
53053;DHT22;38934;52.690;6.184;2023-05-17T05:35:59;9.00;99.90
53053;DHT22;38934;52.690;6.184;2023-05-17T05:38:25;9.10;99.90
53053;DHT22;38934;52.690;6.184;2023-05-17T05:40:51;9.20;99.90
53053;DHT22;38934;52.690;6.184;2023-05-17T05:43:18;9.20;99.90
53053;DHT22;38934;52.690;6.184;2023-05-17T05:45:44;9.20;99.90
53053;DHT22;38934;52.690;6.184;2023-05-17T05:48:13;9.20;99.90
53053;DHT22;38934;52.690;6.184;2023-05-17T05:50:43;9.10;99.90
53053;DHT22;38934;52.690;6.184;2023-05-17T05:53:12;9.10;99.90
53053;DHT22;38934;52.690;6.184;2023-05-17T05:55:41;9.10;99.90
53053;DHT22;38934;52.690;6.184;2023-05-17T05:58:07;9.60;99.90
53053;DHT22;38934;52.690;6.184;2023-05-17T06:00:36;9.10;99.90
53053;DHT22;38934;52.690;6.184;2023-05-17T06:03:03;9.20;99.90
53053;DHT22;38934;52.690;6.184;2023-05-17T06:05:29;9.30;99.90
53053;DHT22;38934;52.690;6.184;2023-05-17T06:07:55;9.50;99.90
53053;DHT22;38934;52.690;6.184;2023-05-17T06:10:20;9.60;99.90
53053;DHT22;38934;52.690;6.184;2023-05-17T06:12:47;9.80;99.90
53053;DHT22;38934;52.690;6.184;2023-05-17T06:15:13;9.90;99.90
53053;DHT22;38934;52.690;6.184;2023-05-17T06:17:38;10.00;99.90
53053;DHT22;38934;52.690;6.184;2023-05-17T06:20:04;10.00;99.90
53053;DHT22;38934;52.690;6.184;2023-05-17T06:22:30;10.10;99.90
53053;DHT22;38934;52.690;6.184;2023-05-17T06:24:55;10.10;99.90
53053;DHT22;38934;52.690;6.184;2023-05-17T06:27:21;10.20;99.90
53053;DHT22;38934;52.690;6.184;2023-05-17T06:29:47;10.30;99.90
53053;DHT22;38934;52.690;6.184;2023-05-17T06:32:13;10.40;99.90
53053;DHT22;38934;52.690;6.184;2023-05-17T06:34:39;10.40;99.90
53053;DHT22;38934;52.690;6.184;2023-05-17T06:37:05;10.50;99.90
53053;DHT22;38934;52.690;6.184;2023-05-17T06:39:31;10.50;99.90
53053;DHT22;38934;52.690;6.184;2023-05-17T06:41:57;10.40;99.90
53053;DHT22;38934;52.690;6.184;2023-05-17T06:44:22;10.50;99.90
53053;DHT22;38934;52.690;6.184;2023-05-17T06:46:49;10.60;99.90
53053;DHT22;38934;52.690;6.184;2023-05-17T06:49:15;10.80;99.90
53053;DHT22;38934;52.690;6.184;2023-05-17T06:51:40;10.90;99.90
53053;DHT22;38934;52.690;6.184;2023-05-17T06:54:06;11.00;99.90
53053;DHT22;38934;52.690;6.184;2023-05-17T06:56:32;11.10;99.90
53053;DHT22;38934;52.690;6.184;2023-05-17T06:58:57;11.20;99.90
53053;DHT22;38934;52.690;6.184;2023-05-17T07:01:24;11.30;99.90
53053;DHT22;38934;52.690;6.184;2023-05-17T07:03:50;11.30;99.90
53053;DHT22;38934;52.690;6.184;2023-05-17T07:06:15;11.40;99.90
53053;DHT22;38934;52.690;6.184;2023-05-17T07:08:41;11.50;99.90
53053;DHT22;38934;52.690;6.184;2023-05-17T07:11:07;11.50;99.90
53053;DHT22;38934;52.690;6.184;2023-05-17T07:13:33;11.70;99.90
53053;DHT22;38934;52.690;6.184;2023-05-17T07:15:59;11.40;99.90
53053;DHT22;38934;52.690;6.184;2023-05-17T07:18:27;11.40;99.90
53053;DHT22;38934;52.690;6.184;2023-05-17T07:20:53;11.30;99.90
53053;DHT22;38934;52.690;6.184;2023-05-17T07:23:19;11.30;99.90
53053;DHT22;38934;52.690;6.184;2023-05-17T07:25:44;11.20;99.90
53053;DHT22;38934;52.690;6.184;2023-05-17T07:28:12;11.20;99.90
53053;DHT22;38934;52.690;6.184;2023-05-17T07:30:37;11.00;99.90
53053;DHT22;38934;52.690;6.184;2023-05-17T07:33:03;11.00;99.90
53053;DHT22;38934;52.690;6.184;2023-05-17T07:35:29;11.00;99.90
53053;DHT22;38934;52.690;6.184;2023-05-17T07:37:54;11.00;99.90
53053;DHT22;38934;52.690;6.184;2023-05-17T07:40:20;11.20;99.90
53053;DHT22;38934;52.690;6.184;2023-05-17T07:42:46;11.40;99.90
53053;DHT22;38934;52.690;6.184;2023-05-17T07:45:14;11.50;99.90
53053;DHT22;38934;52.690;6.184;2023-05-17T07:47:40;11.40;99.90
53053;DHT22;38934;52.690;6.184;2023-05-17T07:50:07;11.40;99.90
53053;DHT22;38934;52.690;6.184;2023-05-17T07:52:35;11.30;99.90
53053;DHT22;38934;52.690;6.184;2023-05-17T07:55:01;11.20;99.90
53053;DHT22;38934;52.690;6.184;2023-05-17T07:57:28;11.20;99.90
53053;DHT22;38934;52.690;6.184;2023-05-17T07:59:54;11.20;99.90
53053;DHT22;38934;52.690;6.184;2023-05-17T08:02:20;11.20;99.90
53053;DHT22;38934;52.690;6.184;2023-05-17T08:04:46;11.10;99.90
53053;DHT22;38934;52.690;6.184;2023-05-17T08:07:11;11.10;99.90
53053;DHT22;38934;52.690;6.184;2023-05-17T08:09:38;11.00;99.90
53053;DHT22;38934;52.690;6.184;2023-05-17T08:12:05;11.00;99.90
53053;DHT22;38934;52.690;6.184;2023-05-17T08:14:33;11.20;99.90
53053;DHT22;38934;52.690;6.184;2023-05-17T08:16:58;12.20;99.90
53053;DHT22;38934;52.690;6.184;2023-05-17T08:19:24;13.20;99.90
53053;DHT22;38934;52.690;6.184;2023-05-17T08:21:50;14.10;99.90
53053;DHT22;38934;52.690;6.184;2023-05-17T08:24:21;14.50;99.90
53053;DHT22;38934;52.690;6.184;2023-05-17T08:26:47;14.30;99.90
53053;DHT22;38934;52.690;6.184;2023-05-17T08:29:13;13.80;99.90
53053;DHT22;38934;52.690;6.184;2023-05-17T08:31:38;14.00;99.90
53053;DHT22;38934;52.690;6.184;2023-05-17T08:34:04;14.40;99.50
53053;DHT22;38934;52.690;6.184;2023-05-17T08:36:30;14.50;99.90
53053;DHT22;38934;52.690;6.184;2023-05-17T08:38:56;14.50;99.90
53053;DHT22;38934;52.690;6.184;2023-05-17T08:41:21;14.20;99.90
53053;DHT22;38934;52.690;6.184;2023-05-17T08:43:48;14.40;96.20
53053;DHT22;38934;52.690;6.184;2023-05-17T08:46:14;14.90;92.40
53053;DHT22;38934;52.690;6.184;2023-05-17T08:48:43;15.20;93.30
53053;DHT22;38934;52.690;6.184;2023-05-17T08:51:10;14.40;91.30
53053;DHT22;38934;52.690;6.184;2023-05-17T08:53:36;13.80;91.50
53053;DHT22;38934;52.690;6.184;2023-05-17T08:56:03;13.50;91.20
53053;DHT22;38934;52.690;6.184;2023-05-17T08:58:34;13.70;90.50
53053;DHT22;38934;52.690;6.184;2023-05-17T09:01:05;14.60;91.00
53053;DHT22;38934;52.690;6.184;2023-05-17T09:03:34;15.00;83.50
53053;DHT22;38934;52.690;6.184;2023-05-17T09:06:01;15.30;81.00
53053;DHT22;38934;52.690;6.184;2023-05-17T09:08:30;15.90;83.60
53053;DHT22;38934;52.690;6.184;2023-05-17T09:10:57;17.40;81.80
53053;DHT22;38934;52.690;6.184;2023-05-17T09:13:24;17.20;73.50
53053;DHT22;38934;52.690;6.184;2023-05-17T09:15:50;17.70;67.00
53053;DHT22;38934;52.690;6.184;2023-05-17T09:18:16;18.00;65.30
53053;DHT22;38934;52.690;6.184;2023-05-17T09:20:49;17.80;65.60
53053;DHT22;38934;52.690;6.184;2023-05-17T09:23:19;18.10;67.30
53053;DHT22;38934;52.690;6.184;2023-05-17T09:25:49;17.80;64.40
53053;DHT22;38934;52.690;6.184;2023-05-17T09:28:17;17.80;64.10
53053;DHT22;38934;52.690;6.184;2023-05-17T09:30:47;17.80;65.50
53053;DHT22;38934;52.690;6.184;2023-05-17T09:33:19;18.10;61.70
53053;DHT22;38934;52.690;6.184;2023-05-17T09:35:45;17.90;61.90
53053;DHT22;38934;52.690;6.184;2023-05-17T09:38:12;16.40;63.00
53053;DHT22;38934;52.690;6.184;2023-05-17T09:40:46;16.50;62.00
53053;DHT22;38934;52.690;6.184;2023-05-17T09:43:15;17.00;65.20
53053;DHT22;38934;52.690;6.184;2023-05-17T09:45:45;17.30;65.00
53053;DHT22;38934;52.690;6.184;2023-05-17T09:48:19;17.60;61.70
53053;DHT22;38934;52.690;6.184;2023-05-17T09:50:48;17.90;62.20
53053;DHT22;38934;52.690;6.184;2023-05-17T09:56:00;16.40;62.20
53053;DHT22;38934;52.690;6.184;2023-05-17T09:58:27;15.90;63.00
53053;DHT22;38934;52.690;6.184;2023-05-17T10:01:00;15.60;63.70
53053;DHT22;38934;52.690;6.184;2023-05-17T10:03:30;15.80;64.50
53053;DHT22;38934;52.690;6.184;2023-05-17T10:05:58;16.30;62.10
53053;DHT22;38934;52.690;6.184;2023-05-17T10:08:28;15.80;64.40
53053;DHT22;38934;52.690;6.184;2023-05-17T10:10:55;15.60;65.30
53053;DHT22;38934;52.690;6.184;2023-05-17T10:13:25;15.30;65.30
53053;DHT22;38934;52.690;6.184;2023-05-17T10:16:02;15.00;66.60
53053;DHT22;38934;52.690;6.184;2023-05-17T10:18:28;14.80;66.70
53053;DHT22;38934;52.690;6.184;2023-05-17T10:20:55;14.70;68.50
53053;DHT22;38934;52.690;6.184;2023-05-17T10:23:21;14.90;69.80
53053;DHT22;38934;52.690;6.184;2023-05-17T10:25:48;14.90;69.50
53053;DHT22;38934;52.690;6.184;2023-05-17T10:28:16;15.40;68.50
53053;DHT22;38934;52.690;6.184;2023-05-17T10:30:42;14.90;69.80
53053;DHT22;38934;52.690;6.184;2023-05-17T10:33:09;14.80;70.70
53053;DHT22;38934;52.690;6.184;2023-05-17T10:35:37;15.10;70.00
53053;DHT22;38934;52.690;6.184;2023-05-17T10:38:10;15.40;71.30
53053;DHT22;38934;52.690;6.184;2023-05-17T10:40:36;15.70;69.90
53053;DHT22;38934;52.690;6.184;2023-05-17T10:43:04;15.70;70.50
53053;DHT22;38934;52.690;6.184;2023-05-17T10:45:31;15.30;70.30
53053;DHT22;38934;52.690;6.184;2023-05-17T10:48:01;15.30;70.80
53053;DHT22;38934;52.690;6.184;2023-05-17T10:50:36;15.50;71.10
53053;DHT22;38934;52.690;6.184;2023-05-17T10:53:08;15.30;70.20
53053;DHT22;38934;52.690;6.184;2023-05-17T10:55:42;15.10;69.80
53053;DHT22;38934;52.690;6.184;2023-05-17T10:58:13;14.90;71.40
53053;DHT22;38934;52.690;6.184;2023-05-17T11:00:50;15.00;71.70
53053;DHT22;38934;52.690;6.184;2023-05-17T11:03:25;14.90;73.40
53053;DHT22;38934;52.690;6.184;2023-05-17T11:06:18;14.90;71.40
53053;DHT22;38934;52.690;6.184;2023-05-17T11:09:07;14.70;68.90
53053;DHT22;38934;52.690;6.184;2023-05-17T11:12:03;14.50;72.10
53053;DHT22;38934;52.690;6.184;2023-05-17T11:17:14;14.40;74.70
53053;DHT22;38934;52.690;6.184;2023-05-17T11:20:03;14.40;74.60
53053;DHT22;38934;52.690;6.184;2023-05-17T11:22:36;14.30;74.10
53053;DHT22;38934;52.690;6.184;2023-05-17T11:25:08;14.20;75.30
53053;DHT22;38934;52.690;6.184;2023-05-17T11:28:27;14.10;72.20
53053;DHT22;38934;52.690;6.184;2023-05-17T11:30:49;14.00;73.80
53053;DHT22;38934;52.690;6.184;2023-05-17T11:33:16;14.10;75.90
53053;DHT22;38934;52.690;6.184;2023-05-17T11:35:44;14.40;77.00
53053;DHT22;38934;52.690;6.184;2023-05-17T11:38:21;14.50;76.00
53053;DHT22;38934;52.690;6.184;2023-05-17T11:40:53;14.50;74.90
53053;DHT22;38934;52.690;6.184;2023-05-17T11:43:21;14.70;73.90
53053;DHT22;38934;52.690;6.184;2023-05-17T11:45:55;14.90;72.90
53053;DHT22;38934;52.690;6.184;2023-05-17T11:48:29;15.10;67.40
53053;DHT22;38934;52.690;6.184;2023-05-17T11:50:56;15.00;70.60
53053;DHT22;38934;52.690;6.184;2023-05-17T11:53:24;14.80;68.70
53053;DHT22;38934;52.690;6.184;2023-05-17T11:55:53;14.60;69.80
53053;DHT22;38934;52.690;6.184;2023-05-17T11:58:24;14.90;70.20
53053;DHT22;38934;52.690;6.184;2023-05-17T12:00:55;14.30;68.10
53053;DHT22;38934;52.690;6.184;2023-05-17T12:03:23;14.30;70.10
53053;DHT22;38934;52.690;6.184;2023-05-17T12:06:04;14.60;72.00
53053;DHT22;38934;52.690;6.184;2023-05-17T12:08:31;14.80;71.10
53053;DHT22;38934;52.690;6.184;2023-05-17T12:11:02;14.70;69.50
53053;DHT22;38934;52.690;6.184;2023-05-17T12:13:32;14.60;70.00
53053;DHT22;38934;52.690;6.184;2023-05-17T12:16:03;14.80;71.60
53053;DHT22;38934;52.690;6.184;2023-05-17T12:18:42;14.80;70.30
53053;DHT22;38934;52.690;6.184;2023-05-17T12:21:09;14.80;69.40
53053;DHT22;38934;52.690;6.184;2023-05-17T12:23:36;14.70;68.20
53053;DHT22;38934;52.690;6.184;2023-05-17T12:26:07;14.50;70.00
53053;DHT22;38934;52.690;6.184;2023-05-17T12:28:34;14.40;71.10
53053;DHT22;38934;52.690;6.184;2023-05-17T12:31:01;14.40;70.80
53053;DHT22;38934;52.690;6.184;2023-05-17T12:33:34;14.50;69.00
53053;DHT22;38934;52.690;6.184;2023-05-17T12:36:04;14.40;68.60
53053;DHT22;38934;52.690;6.184;2023-05-17T12:38:31;14.30;69.50
53053;DHT22;38934;52.690;6.184;2023-05-17T12:41:00;14.10;68.50
53053;DHT22;38934;52.690;6.184;2023-05-17T12:43:32;14.00;70.30
53053;DHT22;38934;52.690;6.184;2023-05-17T12:46:05;13.90;68.60
53053;DHT22;38934;52.690;6.184;2023-05-17T12:48:35;13.80;69.20
53053;DHT22;38934;52.690;6.184;2023-05-17T12:53:43;14.10;68.70
53053;DHT22;38934;52.690;6.184;2023-05-17T12:56:14;14.30;69.10
53053;DHT22;38934;52.690;6.184;2023-05-17T12:58:41;14.30;67.30
53053;DHT22;38934;52.690;6.184;2023-05-17T13:01:07;14.30;67.10
53053;DHT22;38934;52.690;6.184;2023-05-17T13:03:39;13.70;67.70
53053;DHT22;38934;52.690;6.184;2023-05-17T13:06:07;13.60;68.20
53053;DHT22;38934;52.690;6.184;2023-05-17T13:08:35;13.80;69.80
53053;DHT22;38934;52.690;6.184;2023-05-17T13:11:13;14.10;69.80
53053;DHT22;38934;52.690;6.184;2023-05-17T13:13:40;14.40;69.40
53053;DHT22;38934;52.690;6.184;2023-05-17T13:16:06;14.60;70.00
53053;DHT22;38934;52.690;6.184;2023-05-17T13:18:48;14.70;69.70
53053;DHT22;38934;52.690;6.184;2023-05-17T13:21:16;14.90;69.20
53053;DHT22;38934;52.690;6.184;2023-05-17T13:23:50;14.70;69.30
53053;DHT22;38934;52.690;6.184;2023-05-17T13:26:17;14.60;68.40
53053;DHT22;38934;52.690;6.184;2023-05-17T13:28:43;15.00;69.60
53053;DHT22;38934;52.690;6.184;2023-05-17T13:31:12;14.90;70.90
53053;DHT22;38934;52.690;6.184;2023-05-17T13:33:38;15.20;71.20
53053;DHT22;38934;52.690;6.184;2023-05-17T13:36:04;15.80;69.10
53053;DHT22;38934;52.690;6.184;2023-05-17T13:38:31;15.30;68.80
53053;DHT22;38934;52.690;6.184;2023-05-17T13:40:57;15.10;68.80
53053;DHT22;38934;52.690;6.184;2023-05-17T13:43:22;14.90;72.00
53053;DHT22;38934;52.690;6.184;2023-05-17T13:45:49;14.80;70.90
53053;DHT22;38934;52.690;6.184;2023-05-17T13:48:19;14.50;71.60
53053;DHT22;38934;52.690;6.184;2023-05-17T13:50:44;14.40;73.20
53053;DHT22;38934;52.690;6.184;2023-05-17T13:53:10;14.30;74.30
53053;DHT22;38934;52.690;6.184;2023-05-17T13:55:36;14.20;74.80
53053;DHT22;38934;52.690;6.184;2023-05-17T13:58:04;14.10;75.00
53053;DHT22;38934;52.690;6.184;2023-05-17T14:00:30;14.20;75.00
53053;DHT22;38934;52.690;6.184;2023-05-17T14:02:55;14.00;75.00
53053;DHT22;38934;52.690;6.184;2023-05-17T14:05:21;13.90;75.40
53053;DHT22;38934;52.690;6.184;2023-05-17T14:07:53;14.00;76.30
53053;DHT22;38934;52.690;6.184;2023-05-17T14:10:18;14.10;77.80
53053;DHT22;38934;52.690;6.184;2023-05-17T14:12:44;14.10;73.90
53053;DHT22;38934;52.690;6.184;2023-05-17T14:15:12;14.00;74.60
53053;DHT22;38934;52.690;6.184;2023-05-17T14:17:42;14.00;73.50
53053;DHT22;38934;52.690;6.184;2023-05-17T14:20:08;13.80;74.00
53053;DHT22;38934;52.690;6.184;2023-05-17T14:22:34;13.70;75.30
53053;DHT22;38934;52.690;6.184;2023-05-17T14:25:00;13.70;76.00
53053;DHT22;38934;52.690;6.184;2023-05-17T14:27:26;13.70;75.80
53053;DHT22;38934;52.690;6.184;2023-05-17T14:29:52;13.90;76.30
53053;DHT22;38934;52.690;6.184;2023-05-17T14:32:21;13.60;75.30
53053;DHT22;38934;52.690;6.184;2023-05-17T14:34:47;13.40;74.10
53053;DHT22;38934;52.690;6.184;2023-05-17T14:37:12;13.40;75.30
53053;DHT22;38934;52.690;6.184;2023-05-17T14:39:39;13.30;75.30
53053;DHT22;38934;52.690;6.184;2023-05-17T14:42:05;13.40;75.00
53053;DHT22;38934;52.690;6.184;2023-05-17T14:44:31;13.40;74.50
53053;DHT22;38934;52.690;6.184;2023-05-17T14:47:01;13.50;75.00
53053;DHT22;38934;52.690;6.184;2023-05-17T14:49:27;13.40;75.40
53053;DHT22;38934;52.690;6.184;2023-05-17T14:51:52;13.40;74.70
53053;DHT22;38934;52.690;6.184;2023-05-17T14:54:18;13.40;75.80
53053;DHT22;38934;52.690;6.184;2023-05-17T14:56:43;14.10;76.60
53053;DHT22;38934;52.690;6.184;2023-05-17T14:59:09;13.80;75.20
53053;DHT22;38934;52.690;6.184;2023-05-17T15:01:36;13.80;74.10
53053;DHT22;38934;52.690;6.184;2023-05-17T15:04:02;13.90;74.60
53053;DHT22;38934;52.690;6.184;2023-05-17T15:06:27;14.00;74.50
53053;DHT22;38934;52.690;6.184;2023-05-17T15:08:54;14.10;75.00
53053;DHT22;38934;52.690;6.184;2023-05-17T15:11:20;14.20;74.30
53053;DHT22;38934;52.690;6.184;2023-05-17T15:13:46;14.20;72.10
53053;DHT22;38934;52.690;6.184;2023-05-17T15:16:15;14.50;71.70
53053;DHT22;38934;52.690;6.184;2023-05-17T15:18:41;14.20;72.10
53053;DHT22;38934;52.690;6.184;2023-05-17T15:21:07;14.20;72.40
53053;DHT22;38934;52.690;6.184;2023-05-17T15:23:34;14.40;72.00
53053;DHT22;38934;52.690;6.184;2023-05-17T15:26:00;14.50;72.30
53053;DHT22;38934;52.690;6.184;2023-05-17T15:28:26;14.50;72.10
53053;DHT22;38934;52.690;6.184;2023-05-17T15:31:02;14.50;71.30
53053;DHT22;38934;52.690;6.184;2023-05-17T15:33:31;14.30;71.00
53053;DHT22;38934;52.690;6.184;2023-05-17T15:35:57;14.10;71.10
53053;DHT22;38934;52.690;6.184;2023-05-17T15:38:24;14.00;72.00
53053;DHT22;38934;52.690;6.184;2023-05-17T15:41:02;13.80;71.90
53053;DHT22;38934;52.690;6.184;2023-05-17T15:43:33;13.50;71.10
53053;DHT22;38934;52.690;6.184;2023-05-17T15:45:59;13.40;72.20
53053;DHT22;38934;52.690;6.184;2023-05-17T15:48:25;13.20;72.70
53053;DHT22;38934;52.690;6.184;2023-05-17T15:50:54;13.10;72.50
53053;DHT22;38934;52.690;6.184;2023-05-17T15:53:21;12.90;72.60
53053;DHT22;38934;52.690;6.184;2023-05-17T15:55:47;12.90;73.00
53053;DHT22;38934;52.690;6.184;2023-05-17T15:58:23;13.00;72.70
53053;DHT22;38934;52.690;6.184;2023-05-17T16:00:48;13.10;73.50
53053;DHT22;38934;52.690;6.184;2023-05-17T16:03:15;13.00;73.20
53053;DHT22;38934;52.690;6.184;2023-05-17T16:05:43;12.90;72.70
53053;DHT22;38934;52.690;6.184;2023-05-17T16:08:09;12.90;72.90
53053;DHT22;38934;52.690;6.184;2023-05-17T16:10:38;12.90;72.50
53053;DHT22;38934;52.690;6.184;2023-05-17T16:13:04;12.80;73.30
53053;DHT22;38934;52.690;6.184;2023-05-17T16:15:30;12.80;74.20
53053;DHT22;38934;52.690;6.184;2023-05-17T16:17:57;12.90;74.10
53053;DHT22;38934;52.690;6.184;2023-05-17T16:20:24;12.80;74.80
53053;DHT22;38934;52.690;6.184;2023-05-17T16:22:53;12.70;74.50
53053;DHT22;38934;52.690;6.184;2023-05-17T16:25:22;12.50;74.90
53053;DHT22;38934;52.690;6.184;2023-05-17T16:27:49;12.30;75.20
53053;DHT22;38934;52.690;6.184;2023-05-17T16:30:17;12.40;75.30
53053;DHT22;38934;52.690;6.184;2023-05-17T16:32:44;12.30;75.90
53053;DHT22;38934;52.690;6.184;2023-05-17T16:35:10;12.30;76.20
53053;DHT22;38934;52.690;6.184;2023-05-17T16:37:37;12.30;77.00